<?xml version="1.0" encoding="UTF-8" standalone="no" ?>
<gpx xmlns="http://www.topografix.com/GPX/1/1" xmlns:xsi="http://www.w3.org/2001/XMLSchema-instance" xsi:schemaLocation="http://www.topografix.com/GPX/1/1 http://www.topografix.com/GPX/1/1/gpx.xsd" version="1.1" creator="VisuGPX - https://www.visugpx.com">
  <metadata>
    <name>10997590-LES ARCS LES TERRIERS</name>
  </metadata>
  <trk>
    <name><![CDATA[10997590-LES ARCS LES TERRIERS]]></name>
    <trkseg>
      <trkpt lat="43.43452" lon="6.51029">
        <ele>48</ele>
        <time>2022-03-09T10:01:26Z</time>
      </trkpt>
      <trkpt lat="43.43425" lon="6.51073">
        <ele>37</ele>
        <time>2022-03-09T10:02:22Z</time>
      </trkpt>
      <trkpt lat="43.43432" lon="6.5106">
        <ele>40</ele>
        <time>2022-03-09T10:02:38Z</time>
      </trkpt>
      <trkpt lat="43.43432" lon="6.51063">
        <ele>40</ele>
        <time>2022-03-09T10:02:40Z</time>
      </trkpt>
      <trkpt lat="43.43433" lon="6.51061">
        <ele>40</ele>
        <time>2022-03-09T10:02:43Z</time>
      </trkpt>
      <trkpt lat="43.43437" lon="6.51062">
        <ele>40</ele>
        <time>2022-03-09T10:02:48Z</time>
      </trkpt>
      <trkpt lat="43.43438" lon="6.51059">
        <ele>41</ele>
        <time>2022-03-09T10:02:51Z</time>
      </trkpt>
      <trkpt lat="43.43434" lon="6.51062">
        <ele>40</ele>
        <time>2022-03-09T10:02:57Z</time>
      </trkpt>
      <trkpt lat="43.43436" lon="6.51063">
        <ele>40</ele>
        <time>2022-03-09T10:03:00Z</time>
      </trkpt>
      <trkpt lat="43.43434" lon="6.51061">
        <ele>40</ele>
        <time>2022-03-09T10:03:04Z</time>
      </trkpt>
      <trkpt lat="43.43437" lon="6.51059">
        <ele>41</ele>
        <time>2022-03-09T10:03:08Z</time>
      </trkpt>
      <trkpt lat="43.43428" lon="6.51068">
        <ele>39</ele>
        <time>2022-03-09T10:03:23Z</time>
      </trkpt>
      <trkpt lat="43.43434" lon="6.51059">
        <ele>41</ele>
        <time>2022-03-09T10:03:35Z</time>
      </trkpt>
      <trkpt lat="43.43435" lon="6.51061">
        <ele>40</ele>
        <time>2022-03-09T10:03:37Z</time>
      </trkpt>
      <trkpt lat="43.43445" lon="6.5106">
        <ele>41</ele>
        <time>2022-03-09T10:03:50Z</time>
      </trkpt>
      <trkpt lat="43.43444" lon="6.51058">
        <ele>41</ele>
        <time>2022-03-09T10:03:53Z</time>
      </trkpt>
      <trkpt lat="43.43439" lon="6.51058">
        <ele>41</ele>
        <time>2022-03-09T10:03:59Z</time>
      </trkpt>
      <trkpt lat="43.43434" lon="6.5105">
        <ele>43</ele>
        <time>2022-03-09T10:04:10Z</time>
      </trkpt>
      <trkpt lat="43.43435" lon="6.51056">
        <ele>41</ele>
        <time>2022-03-09T10:04:16Z</time>
      </trkpt>
      <trkpt lat="43.43439" lon="6.51058">
        <ele>41</ele>
        <time>2022-03-09T10:04:21Z</time>
      </trkpt>
      <trkpt lat="43.43431" lon="6.51056">
        <ele>41</ele>
        <time>2022-03-09T10:04:32Z</time>
      </trkpt>
      <trkpt lat="43.43427" lon="6.51047">
        <ele>43</ele>
        <time>2022-03-09T10:04:42Z</time>
      </trkpt>
      <trkpt lat="43.43397" lon="6.51029">
        <ele>45</ele>
        <time>2022-03-09T10:05:26Z</time>
      </trkpt>
      <trkpt lat="43.43364" lon="6.51024">
        <ele>43</ele>
        <time>2022-03-09T10:06:10Z</time>
      </trkpt>
      <trkpt lat="43.43348" lon="6.51017">
        <ele>43</ele>
        <time>2022-03-09T10:06:33Z</time>
      </trkpt>
      <trkpt lat="43.43309" lon="6.51027">
        <ele>38</ele>
        <time>2022-03-09T10:07:26Z</time>
      </trkpt>
      <trkpt lat="43.43283" lon="6.5104">
        <ele>35</ele>
        <time>2022-03-09T10:08:03Z</time>
      </trkpt>
      <trkpt lat="43.43258" lon="6.51048">
        <ele>33</ele>
        <time>2022-03-09T10:08:37Z</time>
      </trkpt>
      <trkpt lat="43.43212" lon="6.51041">
        <ele>37</ele>
        <time>2022-03-09T10:09:39Z</time>
      </trkpt>
      <trkpt lat="43.43198" lon="6.51036">
        <ele>39</ele>
        <time>2022-03-09T10:09:58Z</time>
      </trkpt>
      <trkpt lat="43.43175" lon="6.51036">
        <ele>41</ele>
        <time>2022-03-09T10:10:29Z</time>
      </trkpt>
      <trkpt lat="43.43167" lon="6.51046">
        <ele>42</ele>
        <time>2022-03-09T10:10:43Z</time>
      </trkpt>
      <trkpt lat="43.43164" lon="6.51073">
        <ele>40</ele>
        <time>2022-03-09T10:11:10Z</time>
      </trkpt>
      <trkpt lat="43.43146" lon="6.51097">
        <ele>42</ele>
        <time>2022-03-09T10:11:43Z</time>
      </trkpt>
      <trkpt lat="43.43135" lon="6.5111">
        <ele>43</ele>
        <time>2022-03-09T10:12:02Z</time>
      </trkpt>
      <trkpt lat="43.43101" lon="6.51133">
        <ele>46</ele>
        <time>2022-03-09T10:12:53Z</time>
      </trkpt>
      <trkpt lat="43.43063" lon="6.5113">
        <ele>51</ele>
        <time>2022-03-09T10:13:44Z</time>
      </trkpt>
      <trkpt lat="43.43046" lon="6.51122">
        <ele>54</ele>
        <time>2022-03-09T10:14:08Z</time>
      </trkpt>
      <trkpt lat="43.4303" lon="6.51103">
        <ele>58</ele>
        <time>2022-03-09T10:14:36Z</time>
      </trkpt>
      <trkpt lat="43.43017" lon="6.511">
        <ele>59</ele>
        <time>2022-03-09T10:14:53Z</time>
      </trkpt>
      <trkpt lat="43.43009" lon="6.51108">
        <ele>58</ele>
        <time>2022-03-09T10:15:07Z</time>
      </trkpt>
      <trkpt lat="43.43002" lon="6.51147">
        <ele>53</ele>
        <time>2022-03-09T10:15:46Z</time>
      </trkpt>
      <trkpt lat="43.43" lon="6.51149">
        <ele>53</ele>
        <time>2022-03-09T10:15:49Z</time>
      </trkpt>
      <trkpt lat="43.43" lon="6.51174">
        <ele>50</ele>
        <time>2022-03-09T10:16:13Z</time>
      </trkpt>
      <trkpt lat="43.42967" lon="6.51214">
        <ele>60</ele>
        <time>2022-03-09T10:17:12Z</time>
      </trkpt>
      <trkpt lat="43.42962" lon="6.51224">
        <ele>61</ele>
        <time>2022-03-09T10:17:24Z</time>
      </trkpt>
      <trkpt lat="43.42961" lon="6.51221">
        <ele>61</ele>
        <time>2022-03-09T10:17:27Z</time>
      </trkpt>
      <trkpt lat="43.42952" lon="6.51253">
        <ele>61</ele>
        <time>2022-03-09T10:18:00Z</time>
      </trkpt>
      <trkpt lat="43.42937" lon="6.51293">
        <ele>62</ele>
        <time>2022-03-09T10:18:44Z</time>
      </trkpt>
      <trkpt lat="43.42919" lon="6.51317">
        <ele>64</ele>
        <time>2022-03-09T10:19:17Z</time>
      </trkpt>
      <trkpt lat="43.42914" lon="6.51329">
        <ele>65</ele>
        <time>2022-03-09T10:19:30Z</time>
      </trkpt>
      <trkpt lat="43.42912" lon="6.51345">
        <ele>64</ele>
        <time>2022-03-09T10:19:46Z</time>
      </trkpt>
      <trkpt lat="43.42907" lon="6.5136">
        <ele>64</ele>
        <time>2022-03-09T10:20:02Z</time>
      </trkpt>
      <trkpt lat="43.42887" lon="6.51386">
        <ele>69</ele>
        <time>2022-03-09T10:20:39Z</time>
      </trkpt>
      <trkpt lat="43.4288" lon="6.51402">
        <ele>70</ele>
        <time>2022-03-09T10:20:57Z</time>
      </trkpt>
      <trkpt lat="43.42865" lon="6.51424">
        <ele>73</ele>
        <time>2022-03-09T10:21:26Z</time>
      </trkpt>
      <trkpt lat="43.42862" lon="6.5144">
        <ele>72</ele>
        <time>2022-03-09T10:21:42Z</time>
      </trkpt>
      <trkpt lat="43.42864" lon="6.51448">
        <ele>70</ele>
        <time>2022-03-09T10:21:50Z</time>
      </trkpt>
      <trkpt lat="43.42861" lon="6.51475">
        <ele>68</ele>
        <time>2022-03-09T10:22:17Z</time>
      </trkpt>
      <trkpt lat="43.42846" lon="6.51505">
        <ele>68</ele>
        <time>2022-03-09T10:22:52Z</time>
      </trkpt>
      <trkpt lat="43.42829" lon="6.51518">
        <ele>71</ele>
        <time>2022-03-09T10:23:18Z</time>
      </trkpt>
      <trkpt lat="43.42809" lon="6.51523">
        <ele>79</ele>
        <time>2022-03-09T10:23:45Z</time>
      </trkpt>
      <trkpt lat="43.42796" lon="6.51533">
        <ele>84</ele>
        <time>2022-03-09T10:24:05Z</time>
      </trkpt>
      <trkpt lat="43.42784" lon="6.51557">
        <ele>86</ele>
        <time>2022-03-09T10:24:33Z</time>
      </trkpt>
      <trkpt lat="43.42787" lon="6.51619">
        <ele>78</ele>
        <time>2022-03-09T10:25:34Z</time>
      </trkpt>
      <trkpt lat="43.42779" lon="6.51634">
        <ele>79</ele>
        <time>2022-03-09T10:25:52Z</time>
      </trkpt>
      <trkpt lat="43.42729" lon="6.51686">
        <ele>97</ele>
        <time>2022-03-09T10:27:15Z</time>
      </trkpt>
      <trkpt lat="43.4273" lon="6.51697">
        <ele>97</ele>
        <time>2022-03-09T10:27:26Z</time>
      </trkpt>
      <trkpt lat="43.42751" lon="6.51725">
        <ele>91</ele>
        <time>2022-03-09T10:28:05Z</time>
      </trkpt>
      <trkpt lat="43.42771" lon="6.51764">
        <ele>88</ele>
        <time>2022-03-09T10:28:51Z</time>
      </trkpt>
      <trkpt lat="43.42787" lon="6.51785">
        <ele>87</ele>
        <time>2022-03-09T10:29:21Z</time>
      </trkpt>
      <trkpt lat="43.42804" lon="6.51815">
        <ele>85</ele>
        <time>2022-03-09T10:29:58Z</time>
      </trkpt>
      <trkpt lat="43.42807" lon="6.51835">
        <ele>88</ele>
        <time>2022-03-09T10:30:17Z</time>
      </trkpt>
      <trkpt lat="43.42811" lon="6.51842">
        <ele>87</ele>
        <time>2022-03-09T10:30:26Z</time>
      </trkpt>
      <trkpt lat="43.42807" lon="6.51867">
        <ele>94</ele>
        <time>2022-03-09T10:30:51Z</time>
      </trkpt>
      <trkpt lat="43.42822" lon="6.5192">
        <ele>95</ele>
        <time>2022-03-09T10:31:46Z</time>
      </trkpt>
      <trkpt lat="43.42823" lon="6.51941">
        <ele>97</ele>
        <time>2022-03-09T10:32:06Z</time>
      </trkpt>
      <trkpt lat="43.4282" lon="6.5198">
        <ele>104</ele>
        <time>2022-03-09T10:32:44Z</time>
      </trkpt>
      <trkpt lat="43.42829" lon="6.52001">
        <ele>102</ele>
        <time>2022-03-09T10:33:08Z</time>
      </trkpt>
      <trkpt lat="43.42833" lon="6.52023">
        <ele>102</ele>
        <time>2022-03-09T10:33:30Z</time>
      </trkpt>
      <trkpt lat="43.42836" lon="6.52022">
        <ele>100</ele>
        <time>2022-03-09T10:33:34Z</time>
      </trkpt>
      <trkpt lat="43.42837" lon="6.52038">
        <ele>102</ele>
        <time>2022-03-09T10:33:50Z</time>
      </trkpt>
      <trkpt lat="43.4285" lon="6.52087">
        <ele>99</ele>
        <time>2022-03-09T10:34:40Z</time>
      </trkpt>
      <trkpt lat="43.42851" lon="6.52095">
        <ele>98</ele>
        <time>2022-03-09T10:34:48Z</time>
      </trkpt>
      <trkpt lat="43.42847" lon="6.52132">
        <ele>95</ele>
        <time>2022-03-09T10:35:24Z</time>
      </trkpt>
      <trkpt lat="43.42835" lon="6.52143">
        <ele>99</ele>
        <time>2022-03-09T10:35:44Z</time>
      </trkpt>
      <trkpt lat="43.42824" lon="6.52146">
        <ele>102</ele>
        <time>2022-03-09T10:35:59Z</time>
      </trkpt>
      <trkpt lat="43.4279" lon="6.52162">
        <ele>107</ele>
        <time>2022-03-09T10:36:47Z</time>
      </trkpt>
      <trkpt lat="43.42758" lon="6.52159">
        <ele>115</ele>
        <time>2022-03-09T10:37:29Z</time>
      </trkpt>
      <trkpt lat="43.42734" lon="6.52149">
        <ele>122</ele>
        <time>2022-03-09T10:38:03Z</time>
      </trkpt>
      <trkpt lat="43.42717" lon="6.52152">
        <ele>124</ele>
        <time>2022-03-09T10:38:26Z</time>
      </trkpt>
      <trkpt lat="43.42704" lon="6.52162">
        <ele>123</ele>
        <time>2022-03-09T10:38:46Z</time>
      </trkpt>
      <trkpt lat="43.42684" lon="6.52184">
        <ele>119</ele>
        <time>2022-03-09T10:39:20Z</time>
      </trkpt>
      <trkpt lat="43.42673" lon="6.52205">
        <ele>115</ele>
        <time>2022-03-09T10:39:45Z</time>
      </trkpt>
      <trkpt lat="43.42649" lon="6.52215">
        <ele>113</ele>
        <time>2022-03-09T10:40:18Z</time>
      </trkpt>
      <trkpt lat="43.42637" lon="6.52211">
        <ele>114</ele>
        <time>2022-03-09T10:40:35Z</time>
      </trkpt>
      <trkpt lat="43.42612" lon="6.52194">
        <ele>118</ele>
        <time>2022-03-09T10:41:12Z</time>
      </trkpt>
      <trkpt lat="43.42602" lon="6.52176">
        <ele>121</ele>
        <time>2022-03-09T10:41:34Z</time>
      </trkpt>
      <trkpt lat="43.42592" lon="6.52114">
        <ele>128</ele>
        <time>2022-03-09T10:42:35Z</time>
      </trkpt>
      <trkpt lat="43.42595" lon="6.52053">
        <ele>136</ele>
        <time>2022-03-09T10:43:35Z</time>
      </trkpt>
      <trkpt lat="43.42592" lon="6.52026">
        <ele>139</ele>
        <time>2022-03-09T10:44:01Z</time>
      </trkpt>
      <trkpt lat="43.42575" lon="6.51993">
        <ele>142</ele>
        <time>2022-03-09T10:44:40Z</time>
      </trkpt>
      <trkpt lat="43.42565" lon="6.51982">
        <ele>144</ele>
        <time>2022-03-09T10:44:57Z</time>
      </trkpt>
      <trkpt lat="43.42526" lon="6.51966">
        <ele>144</ele>
        <time>2022-03-09T10:45:52Z</time>
      </trkpt>
      <trkpt lat="43.42486" lon="6.51963">
        <ele>142</ele>
        <time>2022-03-09T10:46:45Z</time>
      </trkpt>
      <trkpt lat="43.42466" lon="6.51967">
        <ele>141</ele>
        <time>2022-03-09T10:47:12Z</time>
      </trkpt>
      <trkpt lat="43.42459" lon="6.51961">
        <ele>141</ele>
        <time>2022-03-09T10:47:23Z</time>
      </trkpt>
      <trkpt lat="43.42446" lon="6.51957">
        <ele>140</ele>
        <time>2022-03-09T10:47:41Z</time>
      </trkpt>
      <trkpt lat="43.42446" lon="6.51953">
        <ele>141</ele>
        <time>2022-03-09T10:47:45Z</time>
      </trkpt>
      <trkpt lat="43.42443" lon="6.51958">
        <ele>140</ele>
        <time>2022-03-09T10:47:51Z</time>
      </trkpt>
      <trkpt lat="43.42443" lon="6.51953">
        <ele>140</ele>
        <time>2022-03-09T10:47:56Z</time>
      </trkpt>
      <trkpt lat="43.42445" lon="6.51955">
        <ele>140</ele>
        <time>2022-03-09T10:47:59Z</time>
      </trkpt>
      <trkpt lat="43.42442" lon="6.51953">
        <ele>140</ele>
        <time>2022-03-09T10:48:04Z</time>
      </trkpt>
      <trkpt lat="43.42444" lon="6.51933">
        <ele>141</ele>
        <time>2022-03-09T10:48:23Z</time>
      </trkpt>
      <trkpt lat="43.42451" lon="6.51915">
        <ele>143</ele>
        <time>2022-03-09T10:48:43Z</time>
      </trkpt>
      <trkpt lat="43.42477" lon="6.51886">
        <ele>147</ele>
        <time>2022-03-09T10:49:28Z</time>
      </trkpt>
      <trkpt lat="43.42499" lon="6.51857">
        <ele>152</ele>
        <time>2022-03-09T10:50:08Z</time>
      </trkpt>
      <trkpt lat="43.4252" lon="6.51817">
        <ele>152</ele>
        <time>2022-03-09T10:50:56Z</time>
      </trkpt>
      <trkpt lat="43.42526" lon="6.51801">
        <ele>151</ele>
        <time>2022-03-09T10:51:14Z</time>
      </trkpt>
      <trkpt lat="43.42535" lon="6.51761">
        <ele>149</ele>
        <time>2022-03-09T10:51:54Z</time>
      </trkpt>
      <trkpt lat="43.42545" lon="6.51752">
        <ele>149</ele>
        <time>2022-03-09T10:52:10Z</time>
      </trkpt>
      <trkpt lat="43.42513" lon="6.51718">
        <ele>153</ele>
        <time>2022-03-09T10:53:04Z</time>
      </trkpt>
      <trkpt lat="43.42495" lon="6.51663">
        <ele>163</ele>
        <time>2022-03-09T10:54:03Z</time>
      </trkpt>
      <trkpt lat="43.42466" lon="6.51624">
        <ele>172</ele>
        <time>2022-03-09T10:54:57Z</time>
      </trkpt>
      <trkpt lat="43.42459" lon="6.5162">
        <ele>173</ele>
        <time>2022-03-09T10:55:07Z</time>
      </trkpt>
      <trkpt lat="43.42455" lon="6.51625">
        <ele>171</ele>
        <time>2022-03-09T10:55:14Z</time>
      </trkpt>
      <trkpt lat="43.42438" lon="6.51632">
        <ele>168</ele>
        <time>2022-03-09T10:55:38Z</time>
      </trkpt>
      <trkpt lat="43.42435" lon="6.51638">
        <ele>166</ele>
        <time>2022-03-09T10:55:45Z</time>
      </trkpt>
      <trkpt lat="43.42423" lon="6.51642">
        <ele>163</ele>
        <time>2022-03-09T10:56:01Z</time>
      </trkpt>
      <trkpt lat="43.42409" lon="6.51643">
        <ele>162</ele>
        <time>2022-03-09T10:56:20Z</time>
      </trkpt>
      <trkpt lat="43.4239" lon="6.51637">
        <ele>164</ele>
        <time>2022-03-09T10:56:46Z</time>
      </trkpt>
      <trkpt lat="43.42368" lon="6.51641">
        <ele>162</ele>
        <time>2022-03-09T10:57:16Z</time>
      </trkpt>
      <trkpt lat="43.4235" lon="6.51635">
        <ele>163</ele>
        <time>2022-03-09T10:57:40Z</time>
      </trkpt>
      <trkpt lat="43.42332" lon="6.51606">
        <ele>168</ele>
        <time>2022-03-09T10:58:17Z</time>
      </trkpt>
      <trkpt lat="43.423" lon="6.51564">
        <ele>170</ele>
        <time>2022-03-09T10:59:16Z</time>
      </trkpt>
      <trkpt lat="43.4229" lon="6.51536">
        <ele>177</ele>
        <time>2022-03-09T10:59:47Z</time>
      </trkpt>
      <trkpt lat="43.42279" lon="6.51527">
        <ele>177</ele>
        <time>2022-03-09T11:00:04Z</time>
      </trkpt>
      <trkpt lat="43.42228" lon="6.51517">
        <ele>165</ele>
        <time>2022-03-09T11:01:12Z</time>
      </trkpt>
      <trkpt lat="43.4222" lon="6.51513">
        <ele>163</ele>
        <time>2022-03-09T11:01:24Z</time>
      </trkpt>
      <trkpt lat="43.42208" lon="6.51497">
        <ele>162</ele>
        <time>2022-03-09T11:01:46Z</time>
      </trkpt>
      <trkpt lat="43.42188" lon="6.51431">
        <ele>170</ele>
        <time>2022-03-09T11:02:55Z</time>
      </trkpt>
      <trkpt lat="43.42178" lon="6.51412">
        <ele>170</ele>
        <time>2022-03-09T11:03:18Z</time>
      </trkpt>
      <trkpt lat="43.42163" lon="6.51358">
        <ele>176</ele>
        <time>2022-03-09T11:04:14Z</time>
      </trkpt>
      <trkpt lat="43.42139" lon="6.51321">
        <ele>177</ele>
        <time>2022-03-09T11:05:02Z</time>
      </trkpt>
      <trkpt lat="43.42124" lon="6.51289">
        <ele>179</ele>
        <time>2022-03-09T11:05:39Z</time>
      </trkpt>
      <trkpt lat="43.42113" lon="6.51283">
        <ele>177</ele>
        <time>2022-03-09T11:05:55Z</time>
      </trkpt>
      <trkpt lat="43.42103" lon="6.51274">
        <ele>175</ele>
        <time>2022-03-09T11:06:11Z</time>
      </trkpt>
      <trkpt lat="43.42085" lon="6.5123">
        <ele>177</ele>
        <time>2022-03-09T11:07:00Z</time>
      </trkpt>
      <trkpt lat="43.42082" lon="6.51214">
        <ele>180</ele>
        <time>2022-03-09T11:07:16Z</time>
      </trkpt>
      <trkpt lat="43.42072" lon="6.51192">
        <ele>184</ele>
        <time>2022-03-09T11:07:41Z</time>
      </trkpt>
      <trkpt lat="43.4205" lon="6.51169">
        <ele>186</ele>
        <time>2022-03-09T11:08:18Z</time>
      </trkpt>
      <trkpt lat="43.42028" lon="6.51137">
        <ele>187</ele>
        <time>2022-03-09T11:09:01Z</time>
      </trkpt>
      <trkpt lat="43.42022" lon="6.51118">
        <ele>188</ele>
        <time>2022-03-09T11:09:21Z</time>
      </trkpt>
      <trkpt lat="43.42002" lon="6.51084">
        <ele>186</ele>
        <time>2022-03-09T11:10:03Z</time>
      </trkpt>
      <trkpt lat="43.41987" lon="6.51048">
        <ele>192</ele>
        <time>2022-03-09T11:10:43Z</time>
      </trkpt>
      <trkpt lat="43.41981" lon="6.51043">
        <ele>193</ele>
        <time>2022-03-09T11:10:53Z</time>
      </trkpt>
      <trkpt lat="43.41956" lon="6.51056">
        <ele>195</ele>
        <time>2022-03-09T11:11:28Z</time>
      </trkpt>
      <trkpt lat="43.41953" lon="6.51071">
        <ele>193</ele>
        <time>2022-03-09T11:11:43Z</time>
      </trkpt>
      <trkpt lat="43.41971" lon="6.51084">
        <ele>188</ele>
        <time>2022-03-09T11:12:10Z</time>
      </trkpt>
      <trkpt lat="43.41983" lon="6.51096">
        <ele>187</ele>
        <time>2022-03-09T11:12:30Z</time>
      </trkpt>
      <trkpt lat="43.41988" lon="6.51118">
        <ele>185</ele>
        <time>2022-03-09T11:12:53Z</time>
      </trkpt>
      <trkpt lat="43.41986" lon="6.51134">
        <ele>185</ele>
        <time>2022-03-09T11:13:08Z</time>
      </trkpt>
      <trkpt lat="43.41994" lon="6.51173">
        <ele>182</ele>
        <time>2022-03-09T11:13:48Z</time>
      </trkpt>
      <trkpt lat="43.42001" lon="6.51195">
        <ele>179</ele>
        <time>2022-03-09T11:14:11Z</time>
      </trkpt>
      <trkpt lat="43.42003" lon="6.51219">
        <ele>178</ele>
        <time>2022-03-09T11:14:34Z</time>
      </trkpt>
      <trkpt lat="43.42001" lon="6.51239">
        <ele>177</ele>
        <time>2022-03-09T11:14:54Z</time>
      </trkpt>
      <trkpt lat="43.41996" lon="6.51258">
        <ele>179</ele>
        <time>2022-03-09T11:15:13Z</time>
      </trkpt>
      <trkpt lat="43.41994" lon="6.5129">
        <ele>179</ele>
        <time>2022-03-09T11:15:45Z</time>
      </trkpt>
      <trkpt lat="43.42005" lon="6.51324">
        <ele>175</ele>
        <time>2022-03-09T11:16:21Z</time>
      </trkpt>
      <trkpt lat="43.42014" lon="6.51342">
        <ele>173</ele>
        <time>2022-03-09T11:16:42Z</time>
      </trkpt>
      <trkpt lat="43.42017" lon="6.5136">
        <ele>173</ele>
        <time>2022-03-09T11:17:00Z</time>
      </trkpt>
      <trkpt lat="43.42015" lon="6.51369">
        <ele>173</ele>
        <time>2022-03-09T11:17:09Z</time>
      </trkpt>
      <trkpt lat="43.42029" lon="6.51425">
        <ele>167</ele>
        <time>2022-03-09T11:18:06Z</time>
      </trkpt>
      <trkpt lat="43.42031" lon="6.51452">
        <ele>164</ele>
        <time>2022-03-09T11:18:33Z</time>
      </trkpt>
      <trkpt lat="43.42025" lon="6.51471">
        <ele>165</ele>
        <time>2022-03-09T11:18:53Z</time>
      </trkpt>
      <trkpt lat="43.42014" lon="6.5149">
        <ele>169</ele>
        <time>2022-03-09T11:19:16Z</time>
      </trkpt>
      <trkpt lat="43.41994" lon="6.51515">
        <ele>173</ele>
        <time>2022-03-09T11:19:52Z</time>
      </trkpt>
      <trkpt lat="43.41985" lon="6.51545">
        <ele>170</ele>
        <time>2022-03-09T11:20:24Z</time>
      </trkpt>
      <trkpt lat="43.41977" lon="6.51558">
        <ele>169</ele>
        <time>2022-03-09T11:20:40Z</time>
      </trkpt>
      <trkpt lat="43.41966" lon="6.51568">
        <ele>170</ele>
        <time>2022-03-09T11:20:58Z</time>
      </trkpt>
      <trkpt lat="43.41957" lon="6.51579">
        <ele>170</ele>
        <time>2022-03-09T11:21:14Z</time>
      </trkpt>
      <trkpt lat="43.41955" lon="6.51585">
        <ele>170</ele>
        <time>2022-03-09T11:21:20Z</time>
      </trkpt>
      <trkpt lat="43.41944" lon="6.51597">
        <ele>171</ele>
        <time>2022-03-09T11:21:39Z</time>
      </trkpt>
      <trkpt lat="43.41926" lon="6.51611">
        <ele>173</ele>
        <time>2022-03-09T11:22:07Z</time>
      </trkpt>
      <trkpt lat="43.41914" lon="6.5163">
        <ele>173</ele>
        <time>2022-03-09T11:22:31Z</time>
      </trkpt>
      <trkpt lat="43.4191" lon="6.51643">
        <ele>171</ele>
        <time>2022-03-09T11:22:45Z</time>
      </trkpt>
      <trkpt lat="43.41909" lon="6.51662">
        <ele>168</ele>
        <time>2022-03-09T11:23:03Z</time>
      </trkpt>
      <trkpt lat="43.41902" lon="6.51681">
        <ele>166</ele>
        <time>2022-03-09T11:23:24Z</time>
      </trkpt>
      <trkpt lat="43.41897" lon="6.51688">
        <ele>165</ele>
        <time>2022-03-09T11:23:33Z</time>
      </trkpt>
      <trkpt lat="43.41856" lon="6.51719">
        <ele>164</ele>
        <time>2022-03-09T11:24:36Z</time>
      </trkpt>
      <trkpt lat="43.41842" lon="6.5172">
        <ele>165</ele>
        <time>2022-03-09T11:24:54Z</time>
      </trkpt>
      <trkpt lat="43.41816" lon="6.51713">
        <ele>168</ele>
        <time>2022-03-09T11:25:30Z</time>
      </trkpt>
      <trkpt lat="43.41775" lon="6.51723">
        <ele>168</ele>
        <time>2022-03-09T11:26:25Z</time>
      </trkpt>
      <trkpt lat="43.41762" lon="6.51735">
        <ele>166</ele>
        <time>2022-03-09T11:26:46Z</time>
      </trkpt>
      <trkpt lat="43.41754" lon="6.51785">
        <ele>160</ele>
        <time>2022-03-09T11:27:36Z</time>
      </trkpt>
      <trkpt lat="43.41741" lon="6.51832">
        <ele>154</ele>
        <time>2022-03-09T11:28:25Z</time>
      </trkpt>
      <trkpt lat="43.41727" lon="6.51839">
        <ele>152</ele>
        <time>2022-03-09T11:28:45Z</time>
      </trkpt>
      <trkpt lat="43.41721" lon="6.51836">
        <ele>152</ele>
        <time>2022-03-09T11:28:53Z</time>
      </trkpt>
      <trkpt lat="43.41708" lon="6.51823">
        <ele>153</ele>
        <time>2022-03-09T11:29:14Z</time>
      </trkpt>
      <trkpt lat="43.41701" lon="6.51811">
        <ele>154</ele>
        <time>2022-03-09T11:29:29Z</time>
      </trkpt>
      <trkpt lat="43.41686" lon="6.51764">
        <ele>159</ele>
        <time>2022-03-09T11:30:19Z</time>
      </trkpt>
      <trkpt lat="43.4167" lon="6.51727">
        <ele>163</ele>
        <time>2022-03-09T11:31:01Z</time>
      </trkpt>
      <trkpt lat="43.41662" lon="6.51722">
        <ele>163</ele>
        <time>2022-03-09T11:31:13Z</time>
      </trkpt>
      <trkpt lat="43.41649" lon="6.51747">
        <ele>159</ele>
        <time>2022-03-09T11:31:42Z</time>
      </trkpt>
      <trkpt lat="43.41642" lon="6.51749">
        <ele>158</ele>
        <time>2022-03-09T11:31:52Z</time>
      </trkpt>
      <trkpt lat="43.41653" lon="6.51753">
        <ele>158</ele>
        <time>2022-03-09T11:32:07Z</time>
      </trkpt>
      <trkpt lat="43.41651" lon="6.51742">
        <ele>160</ele>
        <time>2022-03-09T11:32:18Z</time>
      </trkpt>
      <trkpt lat="43.41653" lon="6.51745">
        <ele>159</ele>
        <time>2022-03-09T11:32:22Z</time>
      </trkpt>
      <trkpt lat="43.41649" lon="6.51753">
        <ele>158</ele>
        <time>2022-03-09T11:32:31Z</time>
      </trkpt>
      <trkpt lat="43.41642" lon="6.51758">
        <ele>157</ele>
        <time>2022-03-09T11:32:42Z</time>
      </trkpt>
      <trkpt lat="43.41644" lon="6.51756">
        <ele>157</ele>
        <time>2022-03-09T11:32:45Z</time>
      </trkpt>
      <trkpt lat="43.41649" lon="6.51757">
        <ele>157</ele>
        <time>2022-03-09T11:32:52Z</time>
      </trkpt>
      <trkpt lat="43.41652" lon="6.51751">
        <ele>158</ele>
        <time>2022-03-09T11:32:59Z</time>
      </trkpt>
      <trkpt lat="43.4165" lon="6.51747">
        <ele>159</ele>
        <time>2022-03-09T11:33:04Z</time>
      </trkpt>
      <trkpt lat="43.41657" lon="6.51716">
        <ele>164</ele>
        <time>2022-03-09T11:33:35Z</time>
      </trkpt>
      <trkpt lat="43.41648" lon="6.51704">
        <ele>166</ele>
        <time>2022-03-09T11:33:52Z</time>
      </trkpt>
      <trkpt lat="43.41637" lon="6.51697">
        <ele>168</ele>
        <time>2022-03-09T11:34:08Z</time>
      </trkpt>
      <trkpt lat="43.41623" lon="6.51704">
        <ele>166</ele>
        <time>2022-03-09T11:34:28Z</time>
      </trkpt>
      <trkpt lat="43.41612" lon="6.51721">
        <ele>163</ele>
        <time>2022-03-09T11:34:50Z</time>
      </trkpt>
      <trkpt lat="43.41585" lon="6.51744">
        <ele>157</ele>
        <time>2022-03-09T11:35:32Z</time>
      </trkpt>
      <trkpt lat="43.4157" lon="6.51746">
        <ele>157</ele>
        <time>2022-03-09T11:35:53Z</time>
      </trkpt>
      <trkpt lat="43.41541" lon="6.51728">
        <ele>160</ele>
        <time>2022-03-09T11:36:35Z</time>
      </trkpt>
      <trkpt lat="43.41522" lon="6.5171">
        <ele>163</ele>
        <time>2022-03-09T11:37:06Z</time>
      </trkpt>
      <trkpt lat="43.41478" lon="6.51695">
        <ele>165</ele>
        <time>2022-03-09T11:38:06Z</time>
      </trkpt>
      <trkpt lat="43.41461" lon="6.51703">
        <ele>165</ele>
        <time>2022-03-09T11:38:30Z</time>
      </trkpt>
      <trkpt lat="43.41451" lon="6.51728">
        <ele>161</ele>
        <time>2022-03-09T11:38:58Z</time>
      </trkpt>
      <trkpt lat="43.41414" lon="6.51769">
        <ele>158</ele>
        <time>2022-03-09T11:40:01Z</time>
      </trkpt>
      <trkpt lat="43.414" lon="6.51773">
        <ele>158</ele>
        <time>2022-03-09T11:40:20Z</time>
      </trkpt>
      <trkpt lat="43.41393" lon="6.51771">
        <ele>157</ele>
        <time>2022-03-09T11:40:30Z</time>
      </trkpt>
      <trkpt lat="43.41383" lon="6.51762">
        <ele>158</ele>
        <time>2022-03-09T11:40:46Z</time>
      </trkpt>
      <trkpt lat="43.41352" lon="6.51729">
        <ele>162</ele>
        <time>2022-03-09T11:41:38Z</time>
      </trkpt>
      <trkpt lat="43.4134" lon="6.51724">
        <ele>163</ele>
        <time>2022-03-09T11:41:55Z</time>
      </trkpt>
      <trkpt lat="43.4133" lon="6.51724">
        <ele>163</ele>
        <time>2022-03-09T11:42:08Z</time>
      </trkpt>
      <trkpt lat="43.41303" lon="6.51736">
        <ele>161</ele>
        <time>2022-03-09T11:42:46Z</time>
      </trkpt>
      <trkpt lat="43.41269" lon="6.51711">
        <ele>166</ele>
        <time>2022-03-09T11:43:38Z</time>
      </trkpt>
      <trkpt lat="43.4124" lon="6.51696">
        <ele>168</ele>
        <time>2022-03-09T11:44:19Z</time>
      </trkpt>
      <trkpt lat="43.41225" lon="6.51683">
        <ele>170</ele>
        <time>2022-03-09T11:44:43Z</time>
      </trkpt>
      <trkpt lat="43.41216" lon="6.51664">
        <ele>172</ele>
        <time>2022-03-09T11:45:05Z</time>
      </trkpt>
      <trkpt lat="43.41205" lon="6.51627">
        <ele>176</ele>
        <time>2022-03-09T11:45:43Z</time>
      </trkpt>
      <trkpt lat="43.41202" lon="6.51589">
        <ele>180</ele>
        <time>2022-03-09T11:46:20Z</time>
      </trkpt>
      <trkpt lat="43.41205" lon="6.51569">
        <ele>183</ele>
        <time>2022-03-09T11:46:40Z</time>
      </trkpt>
      <trkpt lat="43.41212" lon="6.51561">
        <ele>185</ele>
        <time>2022-03-09T11:46:52Z</time>
      </trkpt>
      <trkpt lat="43.41221" lon="6.51564">
        <ele>185</ele>
        <time>2022-03-09T11:47:05Z</time>
      </trkpt>
      <trkpt lat="43.41226" lon="6.51573">
        <ele>184</ele>
        <time>2022-03-09T11:47:16Z</time>
      </trkpt>
      <trkpt lat="43.41226" lon="6.51581">
        <ele>183</ele>
        <time>2022-03-09T11:47:23Z</time>
      </trkpt>
      <trkpt lat="43.41225" lon="6.51578">
        <ele>184</ele>
        <time>2022-03-09T11:47:27Z</time>
      </trkpt>
      <trkpt lat="43.41223" lon="6.51581">
        <ele>183</ele>
        <time>2022-03-09T11:47:31Z</time>
      </trkpt>
      <trkpt lat="43.41227" lon="6.51581">
        <ele>183</ele>
        <time>2022-03-09T11:47:36Z</time>
      </trkpt>
      <trkpt lat="43.41224" lon="6.5158">
        <ele>183</ele>
        <time>2022-03-09T11:47:40Z</time>
      </trkpt>
      <trkpt lat="43.41226" lon="6.51583">
        <ele>183</ele>
        <time>2022-03-09T11:47:44Z</time>
      </trkpt>
      <trkpt lat="43.41244" lon="6.51569">
        <ele>186</ele>
        <time>2022-03-09T11:48:12Z</time>
      </trkpt>
      <trkpt lat="43.41255" lon="6.51547">
        <ele>190</ele>
        <time>2022-03-09T11:48:37Z</time>
      </trkpt>
      <trkpt lat="43.41255" lon="6.51532">
        <ele>192</ele>
        <time>2022-03-09T11:48:52Z</time>
      </trkpt>
      <trkpt lat="43.41252" lon="6.51518">
        <ele>194</ele>
        <time>2022-03-09T11:49:06Z</time>
      </trkpt>
      <trkpt lat="43.41248" lon="6.51514">
        <ele>194</ele>
        <time>2022-03-09T11:49:13Z</time>
      </trkpt>
      <trkpt lat="43.41221" lon="6.51501">
        <ele>193</ele>
        <time>2022-03-09T11:49:51Z</time>
      </trkpt>
      <trkpt lat="43.41194" lon="6.51473">
        <ele>197</ele>
        <time>2022-03-09T11:50:36Z</time>
      </trkpt>
      <trkpt lat="43.41187" lon="6.51458">
        <ele>199</ele>
        <time>2022-03-09T11:50:53Z</time>
      </trkpt>
      <trkpt lat="43.4114" lon="6.51404">
        <ele>207</ele>
        <time>2022-03-09T11:52:15Z</time>
      </trkpt>
      <trkpt lat="43.41126" lon="6.51371">
        <ele>214</ele>
        <time>2022-03-09T11:52:52Z</time>
      </trkpt>
      <trkpt lat="43.41123" lon="6.51358">
        <ele>217</ele>
        <time>2022-03-09T11:53:05Z</time>
      </trkpt>
      <trkpt lat="43.41126" lon="6.5134">
        <ele>221</ele>
        <time>2022-03-09T11:53:23Z</time>
      </trkpt>
      <trkpt lat="43.41138" lon="6.51343">
        <ele>222</ele>
        <time>2022-03-09T11:53:39Z</time>
      </trkpt>
      <trkpt lat="43.41159" lon="6.51362">
        <ele>219</ele>
        <time>2022-03-09T11:54:13Z</time>
      </trkpt>
      <trkpt lat="43.41201" lon="6.51361">
        <ele>226</ele>
        <time>2022-03-09T11:55:09Z</time>
      </trkpt>
      <trkpt lat="43.41239" lon="6.51372">
        <ele>228</ele>
        <time>2022-03-09T11:56:01Z</time>
      </trkpt>
      <trkpt lat="43.41269" lon="6.51373">
        <ele>233</ele>
        <time>2022-03-09T11:56:41Z</time>
      </trkpt>
      <trkpt lat="43.41293" lon="6.51368">
        <ele>240</ele>
        <time>2022-03-09T11:57:13Z</time>
      </trkpt>
      <trkpt lat="43.41305" lon="6.51372">
        <ele>241</ele>
        <time>2022-03-09T11:57:30Z</time>
      </trkpt>
      <trkpt lat="43.41325" lon="6.51387">
        <ele>240</ele>
        <time>2022-03-09T11:58:00Z</time>
      </trkpt>
      <trkpt lat="43.41324" lon="6.51385">
        <ele>240</ele>
        <time>2022-03-09T11:58:03Z</time>
      </trkpt>
      <trkpt lat="43.41348" lon="6.51398">
        <ele>239</ele>
        <time>2022-03-09T11:58:37Z</time>
      </trkpt>
      <trkpt lat="43.41366" lon="6.51398">
        <ele>240</ele>
        <time>2022-03-09T11:59:01Z</time>
      </trkpt>
      <trkpt lat="43.41419" lon="6.51389">
        <ele>247</ele>
        <time>2022-03-09T12:00:12Z</time>
      </trkpt>
      <trkpt lat="43.41438" lon="6.51378">
        <ele>252</ele>
        <time>2022-03-09T12:00:40Z</time>
      </trkpt>
      <trkpt lat="43.41438" lon="6.51374">
        <ele>254</ele>
        <time>2022-03-09T12:00:44Z</time>
      </trkpt>
      <trkpt lat="43.41484" lon="6.51369">
        <ele>256</ele>
        <time>2022-03-09T12:01:45Z</time>
      </trkpt>
      <trkpt lat="43.41521" lon="6.51357">
        <ele>261</ele>
        <time>2022-03-09T12:02:36Z</time>
      </trkpt>
      <trkpt lat="43.41599" lon="6.51358">
        <ele>260</ele>
        <time>2022-03-09T12:04:20Z</time>
      </trkpt>
      <trkpt lat="43.41612" lon="6.51354">
        <ele>260</ele>
        <time>2022-03-09T12:04:38Z</time>
      </trkpt>
      <trkpt lat="43.41625" lon="6.51338">
        <ele>264</ele>
        <time>2022-03-09T12:05:01Z</time>
      </trkpt>
      <trkpt lat="43.41627" lon="6.51312">
        <ele>265</ele>
        <time>2022-03-09T12:05:26Z</time>
      </trkpt>
      <trkpt lat="43.4162" lon="6.51261">
        <ele>266</ele>
        <time>2022-03-09T12:06:17Z</time>
      </trkpt>
      <trkpt lat="43.41619" lon="6.51235">
        <ele>265</ele>
        <time>2022-03-09T12:06:42Z</time>
      </trkpt>
      <trkpt lat="43.41608" lon="6.51208">
        <ele>265</ele>
        <time>2022-03-09T12:07:12Z</time>
      </trkpt>
      <trkpt lat="43.41601" lon="6.51199">
        <ele>266</ele>
        <time>2022-03-09T12:07:25Z</time>
      </trkpt>
      <trkpt lat="43.41596" lon="6.51186">
        <ele>266</ele>
        <time>2022-03-09T12:07:39Z</time>
      </trkpt>
      <trkpt lat="43.41596" lon="6.51167">
        <ele>264</ele>
        <time>2022-03-09T12:07:57Z</time>
      </trkpt>
      <trkpt lat="43.41586" lon="6.51132">
        <ele>266</ele>
        <time>2022-03-09T12:08:34Z</time>
      </trkpt>
      <trkpt lat="43.41587" lon="6.5112">
        <ele>265</ele>
        <time>2022-03-09T12:08:46Z</time>
      </trkpt>
      <trkpt lat="43.4158" lon="6.51094">
        <ele>266</ele>
        <time>2022-03-09T12:09:12Z</time>
      </trkpt>
      <trkpt lat="43.41573" lon="6.51081">
        <ele>268</ele>
        <time>2022-03-09T12:09:28Z</time>
      </trkpt>
      <trkpt lat="43.41546" lon="6.5105">
        <ele>274</ele>
        <time>2022-03-09T12:10:15Z</time>
      </trkpt>
      <trkpt lat="43.41533" lon="6.51031">
        <ele>278</ele>
        <time>2022-03-09T12:10:40Z</time>
      </trkpt>
      <trkpt lat="43.41532" lon="6.51018">
        <ele>278</ele>
        <time>2022-03-09T12:10:53Z</time>
      </trkpt>
      <trkpt lat="43.41545" lon="6.50985">
        <ele>278</ele>
        <time>2022-03-09T12:11:29Z</time>
      </trkpt>
      <trkpt lat="43.41553" lon="6.50977">
        <ele>277</ele>
        <time>2022-03-09T12:11:43Z</time>
      </trkpt>
      <trkpt lat="43.41573" lon="6.50969">
        <ele>275</ele>
        <time>2022-03-09T12:12:10Z</time>
      </trkpt>
      <trkpt lat="43.41583" lon="6.50966">
        <ele>273</ele>
        <time>2022-03-09T12:12:24Z</time>
      </trkpt>
      <trkpt lat="43.41598" lon="6.50967">
        <ele>272</ele>
        <time>2022-03-09T12:12:44Z</time>
      </trkpt>
      <trkpt lat="43.41645" lon="6.50983">
        <ele>264</ele>
        <time>2022-03-09T12:13:49Z</time>
      </trkpt>
      <trkpt lat="43.41668" lon="6.50982">
        <ele>262</ele>
        <time>2022-03-09T12:14:19Z</time>
      </trkpt>
      <trkpt lat="43.41695" lon="6.50976">
        <ele>261</ele>
        <time>2022-03-09T12:14:56Z</time>
      </trkpt>
      <trkpt lat="43.41703" lon="6.50979">
        <ele>260</ele>
        <time>2022-03-09T12:15:07Z</time>
      </trkpt>
      <trkpt lat="43.41714" lon="6.50977">
        <ele>259</ele>
        <time>2022-03-09T12:15:22Z</time>
      </trkpt>
      <trkpt lat="43.41765" lon="6.50944">
        <ele>261</ele>
        <time>2022-03-09T12:16:37Z</time>
      </trkpt>
      <trkpt lat="43.41781" lon="6.50931">
        <ele>260</ele>
        <time>2022-03-09T12:17:02Z</time>
      </trkpt>
      <trkpt lat="43.41788" lon="6.5092">
        <ele>261</ele>
        <time>2022-03-09T12:17:16Z</time>
      </trkpt>
      <trkpt lat="43.41794" lon="6.50906">
        <ele>261</ele>
        <time>2022-03-09T12:17:32Z</time>
      </trkpt>
      <trkpt lat="43.41797" lon="6.50877">
        <ele>262</ele>
        <time>2022-03-09T12:18:00Z</time>
      </trkpt>
      <trkpt lat="43.41789" lon="6.50848">
        <ele>265</ele>
        <time>2022-03-09T12:18:30Z</time>
      </trkpt>
      <trkpt lat="43.41778" lon="6.50762">
        <ele>263</ele>
        <time>2022-03-09T12:19:55Z</time>
      </trkpt>
      <trkpt lat="43.41768" lon="6.50747">
        <ele>264</ele>
        <time>2022-03-09T12:20:15Z</time>
      </trkpt>
      <trkpt lat="43.41712" lon="6.50712">
        <ele>271</ele>
        <time>2022-03-09T12:21:37Z</time>
      </trkpt>
      <trkpt lat="43.417" lon="6.50697">
        <ele>271</ele>
        <time>2022-03-09T12:21:58Z</time>
      </trkpt>
      <trkpt lat="43.41696" lon="6.50682">
        <ele>270</ele>
        <time>2022-03-09T12:22:14Z</time>
      </trkpt>
      <trkpt lat="43.41697" lon="6.50667">
        <ele>269</ele>
        <time>2022-03-09T12:22:28Z</time>
      </trkpt>
      <trkpt lat="43.41717" lon="6.50632">
        <ele>264</ele>
        <time>2022-03-09T12:23:11Z</time>
      </trkpt>
      <trkpt lat="43.41731" lon="6.50588">
        <ele>261</ele>
        <time>2022-03-09T12:23:58Z</time>
      </trkpt>
      <trkpt lat="43.41747" lon="6.50574">
        <ele>261</ele>
        <time>2022-03-09T12:24:23Z</time>
      </trkpt>
      <trkpt lat="43.41771" lon="6.50558">
        <ele>259</ele>
        <time>2022-03-09T12:24:59Z</time>
      </trkpt>
      <trkpt lat="43.41787" lon="6.50554">
        <ele>258</ele>
        <time>2022-03-09T12:25:21Z</time>
      </trkpt>
      <trkpt lat="43.41812" lon="6.50553">
        <ele>256</ele>
        <time>2022-03-09T12:25:54Z</time>
      </trkpt>
      <trkpt lat="43.41856" lon="6.50569">
        <ele>254</ele>
        <time>2022-03-09T12:26:55Z</time>
      </trkpt>
      <trkpt lat="43.41905" lon="6.50598">
        <ele>251</ele>
        <time>2022-03-09T12:28:06Z</time>
      </trkpt>
      <trkpt lat="43.4195" lon="6.50605">
        <ele>250</ele>
        <time>2022-03-09T12:29:06Z</time>
      </trkpt>
      <trkpt lat="43.41976" lon="6.50613">
        <ele>250</ele>
        <time>2022-03-09T12:29:42Z</time>
      </trkpt>
      <trkpt lat="43.41989" lon="6.506">
        <ele>250</ele>
        <time>2022-03-09T12:30:03Z</time>
      </trkpt>
      <trkpt lat="43.42027" lon="6.50581">
        <ele>251</ele>
        <time>2022-03-09T12:30:57Z</time>
      </trkpt>
      <trkpt lat="43.4205" lon="6.50574">
        <ele>250</ele>
        <time>2022-03-09T12:31:29Z</time>
      </trkpt>
      <trkpt lat="43.42064" lon="6.50574">
        <ele>250</ele>
        <time>2022-03-09T12:31:47Z</time>
      </trkpt>
      <trkpt lat="43.42084" lon="6.5055">
        <ele>247</ele>
        <time>2022-03-09T12:32:23Z</time>
      </trkpt>
      <trkpt lat="43.42108" lon="6.5053">
        <ele>241</ele>
        <time>2022-03-09T12:33:00Z</time>
      </trkpt>
      <trkpt lat="43.42114" lon="6.505">
        <ele>237</ele>
        <time>2022-03-09T12:33:30Z</time>
      </trkpt>
      <trkpt lat="43.42113" lon="6.50478">
        <ele>236</ele>
        <time>2022-03-09T12:33:52Z</time>
      </trkpt>
      <trkpt lat="43.4211" lon="6.50436">
        <ele>233</ele>
        <time>2022-03-09T12:34:33Z</time>
      </trkpt>
      <trkpt lat="43.42102" lon="6.50405">
        <ele>231</ele>
        <time>2022-03-09T12:35:05Z</time>
      </trkpt>
      <trkpt lat="43.42091" lon="6.50383">
        <ele>231</ele>
        <time>2022-03-09T12:35:30Z</time>
      </trkpt>
      <trkpt lat="43.42047" lon="6.50324">
        <ele>222</ele>
        <time>2022-03-09T12:36:52Z</time>
      </trkpt>
      <trkpt lat="43.42033" lon="6.50297">
        <ele>217</ele>
        <time>2022-03-09T12:37:25Z</time>
      </trkpt>
      <trkpt lat="43.42036" lon="6.503">
        <ele>218</ele>
        <time>2022-03-09T12:37:30Z</time>
      </trkpt>
      <trkpt lat="43.42037" lon="6.50297">
        <ele>218</ele>
        <time>2022-03-09T12:37:33Z</time>
      </trkpt>
      <trkpt lat="43.42027" lon="6.50292">
        <ele>216</ele>
        <time>2022-03-09T12:37:47Z</time>
      </trkpt>
      <trkpt lat="43.4199" lon="6.50216">
        <ele>208</ele>
        <time>2022-03-09T12:39:16Z</time>
      </trkpt>
      <trkpt lat="43.41985" lon="6.50199">
        <ele>206</ele>
        <time>2022-03-09T12:39:33Z</time>
      </trkpt>
      <trkpt lat="43.41965" lon="6.50161">
        <ele>200</ele>
        <time>2022-03-09T12:40:19Z</time>
      </trkpt>
      <trkpt lat="43.41961" lon="6.50135">
        <ele>199</ele>
        <time>2022-03-09T12:40:45Z</time>
      </trkpt>
      <trkpt lat="43.41964" lon="6.50118">
        <ele>198</ele>
        <time>2022-03-09T12:41:02Z</time>
      </trkpt>
      <trkpt lat="43.41981" lon="6.50089">
        <ele>197</ele>
        <time>2022-03-09T12:41:38Z</time>
      </trkpt>
      <trkpt lat="43.41994" lon="6.50078">
        <ele>195</ele>
        <time>2022-03-09T12:41:58Z</time>
      </trkpt>
      <trkpt lat="43.42008" lon="6.50076">
        <ele>193</ele>
        <time>2022-03-09T12:42:17Z</time>
      </trkpt>
      <trkpt lat="43.42017" lon="6.50072">
        <ele>191</ele>
        <time>2022-03-09T12:42:29Z</time>
      </trkpt>
      <trkpt lat="43.4202" lon="6.50074">
        <ele>191</ele>
        <time>2022-03-09T12:42:34Z</time>
      </trkpt>
      <trkpt lat="43.42009" lon="6.50077">
        <ele>193</ele>
        <time>2022-03-09T12:42:49Z</time>
      </trkpt>
      <trkpt lat="43.42007" lon="6.50075">
        <ele>193</ele>
        <time>2022-03-09T12:42:52Z</time>
      </trkpt>
      <trkpt lat="43.42011" lon="6.5007">
        <ele>191</ele>
        <time>2022-03-09T12:42:59Z</time>
      </trkpt>
      <trkpt lat="43.42043" lon="6.50084">
        <ele>189</ele>
        <time>2022-03-09T12:43:44Z</time>
      </trkpt>
      <trkpt lat="43.42055" lon="6.50092">
        <ele>189</ele>
        <time>2022-03-09T12:44:02Z</time>
      </trkpt>
      <trkpt lat="43.42064" lon="6.50107">
        <ele>191</ele>
        <time>2022-03-09T12:44:21Z</time>
      </trkpt>
      <trkpt lat="43.42074" lon="6.50103">
        <ele>189</ele>
        <time>2022-03-09T12:44:35Z</time>
      </trkpt>
      <trkpt lat="43.42078" lon="6.50081">
        <ele>184</ele>
        <time>2022-03-09T12:44:57Z</time>
      </trkpt>
      <trkpt lat="43.42086" lon="6.50068">
        <ele>180</ele>
        <time>2022-03-09T12:45:13Z</time>
      </trkpt>
      <trkpt lat="43.42116" lon="6.50031">
        <ele>169</ele>
        <time>2022-03-09T12:46:07Z</time>
      </trkpt>
      <trkpt lat="43.42125" lon="6.50023">
        <ele>166</ele>
        <time>2022-03-09T12:46:21Z</time>
      </trkpt>
      <trkpt lat="43.42137" lon="6.50026">
        <ele>166</ele>
        <time>2022-03-09T12:46:38Z</time>
      </trkpt>
      <trkpt lat="43.42145" lon="6.50038">
        <ele>168</ele>
        <time>2022-03-09T12:46:53Z</time>
      </trkpt>
      <trkpt lat="43.42158" lon="6.5007">
        <ele>175</ele>
        <time>2022-03-09T12:47:29Z</time>
      </trkpt>
      <trkpt lat="43.42168" lon="6.50087">
        <ele>178</ele>
        <time>2022-03-09T12:47:50Z</time>
      </trkpt>
      <trkpt lat="43.42179" lon="6.50101">
        <ele>178</ele>
        <time>2022-03-09T12:48:10Z</time>
      </trkpt>
      <trkpt lat="43.42231" lon="6.50146">
        <ele>174</ele>
        <time>2022-03-09T12:49:32Z</time>
      </trkpt>
      <trkpt lat="43.42254" lon="6.50185">
        <ele>176</ele>
        <time>2022-03-09T12:50:21Z</time>
      </trkpt>
      <trkpt lat="43.42257" lon="6.50201">
        <ele>179</ele>
        <time>2022-03-09T12:50:37Z</time>
      </trkpt>
      <trkpt lat="43.42257" lon="6.5022">
        <ele>182</ele>
        <time>2022-03-09T12:50:55Z</time>
      </trkpt>
      <trkpt lat="43.42266" lon="6.50233">
        <ele>182</ele>
        <time>2022-03-09T12:51:13Z</time>
      </trkpt>
      <trkpt lat="43.42271" lon="6.50249">
        <ele>184</ele>
        <time>2022-03-09T12:51:29Z</time>
      </trkpt>
      <trkpt lat="43.42274" lon="6.50291">
        <ele>186</ele>
        <time>2022-03-09T12:52:10Z</time>
      </trkpt>
      <trkpt lat="43.42281" lon="6.50305">
        <ele>186</ele>
        <time>2022-03-09T12:52:27Z</time>
      </trkpt>
      <trkpt lat="43.42284" lon="6.50321">
        <ele>187</ele>
        <time>2022-03-09T12:52:43Z</time>
      </trkpt>
      <trkpt lat="43.42283" lon="6.50342">
        <ele>190</ele>
        <time>2022-03-09T12:53:03Z</time>
      </trkpt>
      <trkpt lat="43.4229" lon="6.5036">
        <ele>191</ele>
        <time>2022-03-09T12:53:23Z</time>
      </trkpt>
      <trkpt lat="43.423" lon="6.50356">
        <ele>190</ele>
        <time>2022-03-09T12:53:37Z</time>
      </trkpt>
      <trkpt lat="43.42317" lon="6.50335">
        <ele>184</ele>
        <time>2022-03-09T12:54:07Z</time>
      </trkpt>
      <trkpt lat="43.42329" lon="6.50326">
        <ele>181</ele>
        <time>2022-03-09T12:54:26Z</time>
      </trkpt>
      <trkpt lat="43.42331" lon="6.50311">
        <ele>178</ele>
        <time>2022-03-09T12:54:40Z</time>
      </trkpt>
      <trkpt lat="43.42329" lon="6.50298">
        <ele>176</ele>
        <time>2022-03-09T12:54:53Z</time>
      </trkpt>
      <trkpt lat="43.42334" lon="6.50282">
        <ele>172</ele>
        <time>2022-03-09T12:55:10Z</time>
      </trkpt>
      <trkpt lat="43.4235" lon="6.50262">
        <ele>171</ele>
        <time>2022-03-09T12:55:39Z</time>
      </trkpt>
      <trkpt lat="43.42349" lon="6.50267">
        <ele>172</ele>
        <time>2022-03-09T12:55:44Z</time>
      </trkpt>
      <trkpt lat="43.42365" lon="6.50251">
        <ele>172</ele>
        <time>2022-03-09T12:56:10Z</time>
      </trkpt>
      <trkpt lat="43.42373" lon="6.50231">
        <ele>170</ele>
        <time>2022-03-09T12:56:33Z</time>
      </trkpt>
      <trkpt lat="43.42398" lon="6.50138">
        <ele>157</ele>
        <time>2022-03-09T12:58:09Z</time>
      </trkpt>
      <trkpt lat="43.42398" lon="6.50118">
        <ele>154</ele>
        <time>2022-03-09T12:58:28Z</time>
      </trkpt>
      <trkpt lat="43.42403" lon="6.50107">
        <ele>153</ele>
        <time>2022-03-09T12:58:41Z</time>
      </trkpt>
      <trkpt lat="43.42418" lon="6.50102">
        <ele>155</ele>
        <time>2022-03-09T12:59:01Z</time>
      </trkpt>
      <trkpt lat="43.42429" lon="6.50107">
        <ele>155</ele>
        <time>2022-03-09T12:59:17Z</time>
      </trkpt>
      <trkpt lat="43.42449" lon="6.50133">
        <ele>159</ele>
        <time>2022-03-09T12:59:53Z</time>
      </trkpt>
      <trkpt lat="43.42466" lon="6.50144">
        <ele>159</ele>
        <time>2022-03-09T13:00:18Z</time>
      </trkpt>
      <trkpt lat="43.42486" lon="6.50146">
        <ele>158</ele>
        <time>2022-03-09T13:00:45Z</time>
      </trkpt>
      <trkpt lat="43.42493" lon="6.50159">
        <ele>160</ele>
        <time>2022-03-09T13:01:01Z</time>
      </trkpt>
      <trkpt lat="43.42497" lon="6.50181">
        <ele>163</ele>
        <time>2022-03-09T13:01:23Z</time>
      </trkpt>
      <trkpt lat="43.42503" lon="6.50196">
        <ele>165</ele>
        <time>2022-03-09T13:01:39Z</time>
      </trkpt>
      <trkpt lat="43.42521" lon="6.50206">
        <ele>161</ele>
        <time>2022-03-09T13:02:05Z</time>
      </trkpt>
      <trkpt lat="43.42525" lon="6.50226">
        <ele>163</ele>
        <time>2022-03-09T13:02:25Z</time>
      </trkpt>
      <trkpt lat="43.42545" lon="6.50232">
        <ele>159</ele>
        <time>2022-03-09T13:02:53Z</time>
      </trkpt>
      <trkpt lat="43.42559" lon="6.50229">
        <ele>154</ele>
        <time>2022-03-09T13:03:12Z</time>
      </trkpt>
      <trkpt lat="43.42574" lon="6.5023">
        <ele>150</ele>
        <time>2022-03-09T13:03:32Z</time>
      </trkpt>
      <trkpt lat="43.42588" lon="6.50237">
        <ele>147</ele>
        <time>2022-03-09T13:03:52Z</time>
      </trkpt>
      <trkpt lat="43.42599" lon="6.50249">
        <ele>144</ele>
        <time>2022-03-09T13:04:10Z</time>
      </trkpt>
      <trkpt lat="43.42599" lon="6.50263">
        <ele>146</ele>
        <time>2022-03-09T13:04:24Z</time>
      </trkpt>
      <trkpt lat="43.4259" lon="6.50298">
        <ele>156</ele>
        <time>2022-03-09T13:05:00Z</time>
      </trkpt>
      <trkpt lat="43.42591" lon="6.5032">
        <ele>158</ele>
        <time>2022-03-09T13:05:21Z</time>
      </trkpt>
      <trkpt lat="43.42638" lon="6.50362">
        <ele>144</ele>
        <time>2022-03-09T13:06:36Z</time>
      </trkpt>
      <trkpt lat="43.42664" lon="6.50397">
        <ele>138</ele>
        <time>2022-03-09T13:07:25Z</time>
      </trkpt>
      <trkpt lat="43.42676" lon="6.50442">
        <ele>140</ele>
        <time>2022-03-09T13:08:11Z</time>
      </trkpt>
      <trkpt lat="43.42681" lon="6.50478">
        <ele>142</ele>
        <time>2022-03-09T13:08:47Z</time>
      </trkpt>
      <trkpt lat="43.42704" lon="6.50511">
        <ele>138</ele>
        <time>2022-03-09T13:09:31Z</time>
      </trkpt>
      <trkpt lat="43.42717" lon="6.50525">
        <ele>134</ele>
        <time>2022-03-09T13:09:53Z</time>
      </trkpt>
      <trkpt lat="43.42726" lon="6.50532">
        <ele>132</ele>
        <time>2022-03-09T13:10:07Z</time>
      </trkpt>
      <trkpt lat="43.42735" lon="6.50532">
        <ele>129</ele>
        <time>2022-03-09T13:10:19Z</time>
      </trkpt>
      <trkpt lat="43.42752" lon="6.50531">
        <ele>126</ele>
        <time>2022-03-09T13:10:41Z</time>
      </trkpt>
      <trkpt lat="43.42768" lon="6.50524">
        <ele>124</ele>
        <time>2022-03-09T13:11:04Z</time>
      </trkpt>
      <trkpt lat="43.42789" lon="6.50531">
        <ele>123</ele>
        <time>2022-03-09T13:11:33Z</time>
      </trkpt>
      <trkpt lat="43.42809" lon="6.50542">
        <ele>122</ele>
        <time>2022-03-09T13:12:01Z</time>
      </trkpt>
      <trkpt lat="43.42825" lon="6.50545">
        <ele>122</ele>
        <time>2022-03-09T13:12:23Z</time>
      </trkpt>
      <trkpt lat="43.42874" lon="6.50567">
        <ele>120</ele>
        <time>2022-03-09T13:13:32Z</time>
      </trkpt>
      <trkpt lat="43.42889" lon="6.5057">
        <ele>119</ele>
        <time>2022-03-09T13:13:52Z</time>
      </trkpt>
      <trkpt lat="43.42905" lon="6.50568">
        <ele>117</ele>
        <time>2022-03-09T13:14:13Z</time>
      </trkpt>
      <trkpt lat="43.42919" lon="6.50562">
        <ele>114</ele>
        <time>2022-03-09T13:14:33Z</time>
      </trkpt>
      <trkpt lat="43.42933" lon="6.50563">
        <ele>111</ele>
        <time>2022-03-09T13:14:52Z</time>
      </trkpt>
      <trkpt lat="43.42943" lon="6.50567">
        <ele>110</ele>
        <time>2022-03-09T13:15:06Z</time>
      </trkpt>
      <trkpt lat="43.42977" lon="6.50592">
        <ele>108</ele>
        <time>2022-03-09T13:15:57Z</time>
      </trkpt>
      <trkpt lat="43.42986" lon="6.50609">
        <ele>107</ele>
        <time>2022-03-09T13:16:17Z</time>
      </trkpt>
      <trkpt lat="43.43001" lon="6.50695">
        <ele>105</ele>
        <time>2022-03-09T13:17:43Z</time>
      </trkpt>
      <trkpt lat="43.43026" lon="6.50728">
        <ele>94</ele>
        <time>2022-03-09T13:18:29Z</time>
      </trkpt>
      <trkpt lat="43.43041" lon="6.50758">
        <ele>90</ele>
        <time>2022-03-09T13:19:05Z</time>
      </trkpt>
      <trkpt lat="43.4305" lon="6.50769">
        <ele>87</ele>
        <time>2022-03-09T13:19:21Z</time>
      </trkpt>
      <trkpt lat="43.43063" lon="6.50816">
        <ele>85</ele>
        <time>2022-03-09T13:20:09Z</time>
      </trkpt>
      <trkpt lat="43.43062" lon="6.50843">
        <ele>84</ele>
        <time>2022-03-09T13:20:36Z</time>
      </trkpt>
      <trkpt lat="43.43058" lon="6.50846">
        <ele>84</ele>
        <time>2022-03-09T13:20:42Z</time>
      </trkpt>
      <trkpt lat="43.43048" lon="6.5085">
        <ele>83</ele>
        <time>2022-03-09T13:20:56Z</time>
      </trkpt>
      <trkpt lat="43.43025" lon="6.50823">
        <ele>85</ele>
        <time>2022-03-09T13:21:36Z</time>
      </trkpt>
      <trkpt lat="43.42999" lon="6.50801">
        <ele>90</ele>
        <time>2022-03-09T13:22:17Z</time>
      </trkpt>
      <trkpt lat="43.42985" lon="6.50796">
        <ele>90</ele>
        <time>2022-03-09T13:22:36Z</time>
      </trkpt>
      <trkpt lat="43.4297" lon="6.50797">
        <ele>88</ele>
        <time>2022-03-09T13:22:56Z</time>
      </trkpt>
      <trkpt lat="43.42949" lon="6.50783">
        <ele>90</ele>
        <time>2022-03-09T13:23:27Z</time>
      </trkpt>
      <trkpt lat="43.42923" lon="6.50771">
        <ele>91</ele>
        <time>2022-03-09T13:24:04Z</time>
      </trkpt>
      <trkpt lat="43.42889" lon="6.50767">
        <ele>90</ele>
        <time>2022-03-09T13:24:49Z</time>
      </trkpt>
      <trkpt lat="43.4287" lon="6.50769">
        <ele>89</ele>
        <time>2022-03-09T13:25:15Z</time>
      </trkpt>
      <trkpt lat="43.42858" lon="6.50773">
        <ele>87</ele>
        <time>2022-03-09T13:25:31Z</time>
      </trkpt>
      <trkpt lat="43.42841" lon="6.50772">
        <ele>87</ele>
        <time>2022-03-09T13:25:54Z</time>
      </trkpt>
      <trkpt lat="43.42803" lon="6.50748">
        <ele>90</ele>
        <time>2022-03-09T13:26:50Z</time>
      </trkpt>
      <trkpt lat="43.4277" lon="6.5075">
        <ele>90</ele>
        <time>2022-03-09T13:27:34Z</time>
      </trkpt>
      <trkpt lat="43.42759" lon="6.50746">
        <ele>91</ele>
        <time>2022-03-09T13:27:49Z</time>
      </trkpt>
      <trkpt lat="43.42747" lon="6.50758">
        <ele>91</ele>
        <time>2022-03-09T13:28:09Z</time>
      </trkpt>
      <trkpt lat="43.42753" lon="6.50768">
        <ele>92</ele>
        <time>2022-03-09T13:28:21Z</time>
      </trkpt>
      <trkpt lat="43.42775" lon="6.50774">
        <ele>90</ele>
        <time>2022-03-09T13:28:51Z</time>
      </trkpt>
      <trkpt lat="43.42794" lon="6.50795">
        <ele>89</ele>
        <time>2022-03-09T13:29:24Z</time>
      </trkpt>
      <trkpt lat="43.42803" lon="6.50811">
        <ele>87</ele>
        <time>2022-03-09T13:29:43Z</time>
      </trkpt>
      <trkpt lat="43.42842" lon="6.50861">
        <ele>83</ele>
        <time>2022-03-09T13:30:54Z</time>
      </trkpt>
      <trkpt lat="43.42862" lon="6.50862">
        <ele>81</ele>
        <time>2022-03-09T13:31:21Z</time>
      </trkpt>
      <trkpt lat="43.4287" lon="6.50856">
        <ele>80</ele>
        <time>2022-03-09T13:31:33Z</time>
      </trkpt>
      <trkpt lat="43.42881" lon="6.50854">
        <ele>79</ele>
        <time>2022-03-09T13:31:48Z</time>
      </trkpt>
      <trkpt lat="43.42898" lon="6.50862">
        <ele>79</ele>
        <time>2022-03-09T13:32:12Z</time>
      </trkpt>
      <trkpt lat="43.42908" lon="6.50874">
        <ele>79</ele>
        <time>2022-03-09T13:32:30Z</time>
      </trkpt>
      <trkpt lat="43.42934" lon="6.50896">
        <ele>79</ele>
        <time>2022-03-09T13:33:10Z</time>
      </trkpt>
      <trkpt lat="43.42992" lon="6.50983">
        <ele>71</ele>
        <time>2022-03-09T13:35:05Z</time>
      </trkpt>
      <trkpt lat="43.42994" lon="6.51002">
        <ele>70</ele>
        <time>2022-03-09T13:35:24Z</time>
      </trkpt>
      <trkpt lat="43.43001" lon="6.51">
        <ele>68</ele>
        <time>2022-03-09T13:35:33Z</time>
      </trkpt>
      <trkpt lat="43.43007" lon="6.51003">
        <ele>69</ele>
        <time>2022-03-09T13:35:42Z</time>
      </trkpt>
      <trkpt lat="43.43004" lon="6.51016">
        <ele>67</ele>
        <time>2022-03-09T13:35:55Z</time>
      </trkpt>
      <trkpt lat="43.43006" lon="6.51041">
        <ele>65</ele>
        <time>2022-03-09T13:36:19Z</time>
      </trkpt>
      <trkpt lat="43.43009" lon="6.51047">
        <ele>65</ele>
        <time>2022-03-09T13:36:26Z</time>
      </trkpt>
      <trkpt lat="43.43006" lon="6.51065">
        <ele>63</ele>
        <time>2022-03-09T13:36:44Z</time>
      </trkpt>
      <trkpt lat="43.42998" lon="6.5109">
        <ele>62</ele>
        <time>2022-03-09T13:37:11Z</time>
      </trkpt>
      <trkpt lat="43.43003" lon="6.51102">
        <ele>59</ele>
        <time>2022-03-09T13:37:24Z</time>
      </trkpt>
      <trkpt lat="43.42998" lon="6.5113">
        <ele>57</ele>
        <time>2022-03-09T13:37:52Z</time>
      </trkpt>
      <trkpt lat="43.43" lon="6.51133">
        <ele>55</ele>
        <time>2022-03-09T13:37:56Z</time>
      </trkpt>
      <trkpt lat="43.42998" lon="6.51129">
        <ele>57</ele>
        <time>2022-03-09T13:38:01Z</time>
      </trkpt>
      <trkpt lat="43.4302" lon="6.51097">
        <ele>60</ele>
        <time>2022-03-09T13:38:43Z</time>
      </trkpt>
      <trkpt lat="43.43045" lon="6.51112">
        <ele>56</ele>
        <time>2022-03-09T13:39:20Z</time>
      </trkpt>
      <trkpt lat="43.4307" lon="6.51122">
        <ele>53</ele>
        <time>2022-03-09T13:39:54Z</time>
      </trkpt>
      <trkpt lat="43.43083" lon="6.51131">
        <ele>50</ele>
        <time>2022-03-09T13:40:14Z</time>
      </trkpt>
      <trkpt lat="43.43089" lon="6.5113">
        <ele>49</ele>
        <time>2022-03-09T13:40:22Z</time>
      </trkpt>
      <trkpt lat="43.43125" lon="6.51108">
        <ele>46</ele>
        <time>2022-03-09T13:41:15Z</time>
      </trkpt>
      <trkpt lat="43.43154" lon="6.51082">
        <ele>42</ele>
        <time>2022-03-09T13:42:01Z</time>
      </trkpt>
      <trkpt lat="43.43169" lon="6.51066">
        <ele>40</ele>
        <time>2022-03-09T13:42:26Z</time>
      </trkpt>
      <trkpt lat="43.43175" lon="6.51041">
        <ele>41</ele>
        <time>2022-03-09T13:42:52Z</time>
      </trkpt>
      <trkpt lat="43.43192" lon="6.51039">
        <ele>39</ele>
        <time>2022-03-09T13:43:14Z</time>
      </trkpt>
      <trkpt lat="43.43251" lon="6.51046">
        <ele>32</ele>
        <time>2022-03-09T13:44:33Z</time>
      </trkpt>
      <trkpt lat="43.43262" lon="6.51045">
        <ele>33</ele>
        <time>2022-03-09T13:44:48Z</time>
      </trkpt>
      <trkpt lat="43.43293" lon="6.51027">
        <ele>37</ele>
        <time>2022-03-09T13:45:33Z</time>
      </trkpt>
      <trkpt lat="43.43321" lon="6.51019">
        <ele>40</ele>
        <time>2022-03-09T13:46:11Z</time>
      </trkpt>
      <trkpt lat="43.43342" lon="6.51016">
        <ele>43</ele>
        <time>2022-03-09T13:46:39Z</time>
      </trkpt>
      <trkpt lat="43.43359" lon="6.51023">
        <ele>43</ele>
        <time>2022-03-09T13:47:03Z</time>
      </trkpt>
      <trkpt lat="43.43394" lon="6.51031">
        <ele>44</ele>
        <time>2022-03-09T13:47:50Z</time>
      </trkpt>
      <trkpt lat="43.43423" lon="6.51054">
        <ele>42</ele>
        <time>2022-03-09T13:48:35Z</time>
      </trkpt>
      <trkpt lat="43.43427" lon="6.51066">
        <ele>39</ele>
        <time>2022-03-09T13:48:48Z</time>
      </trkpt>
      <trkpt lat="43.43427" lon="6.51064">
        <ele>39</ele>
        <time>2022-03-09T13:48:50Z</time>
      </trkpt>
    </trkseg>
  </trk>
</gpx>